Airfield :
LOGIN :

Register | Disclaimer

   EN    FR    IT 

 










Legend :    VFR   Marginal VFR   IFR   Intensive IFR   Very Intensive IFR
Visi :
Ceiling :
>= 8 km
>= 3000ft
5 to 8 km
1000 to 3000 ft
1500m to 5 km
500 to 1000 ft
800 to 1500m
200 to 500 ft
< 800m
< 200 ft
Symbols :   Thunderstorms  Fog  Heavy snow  Heavy precipitations  Wind > 20 kt
SIGMETs :     Misc.  Thunderstorms  Icing  Turbulence  Mountain Waves  Volcanic Ashes






- Airport Elevation : 197 ft
- IATA code : XOG


LFMO - Orange

CURRENT METAR :
  • 162100Z AUTO 15006KT CAVOK 20/13 Q1014 NOSIG

EXPIRED METARs :
  • 162030Z AUTO 15005KT 130V190 CAVOK 21/13 Q1014 NOSIG
  • 162000Z AUTO 15005KT CAVOK 21/12 Q1014 NOSIG
  • 161930Z AUTO 16003KT 130V210 CAVOK 22/12 Q1013 NOSIG
  • 161900Z AUTO 18006KT 150V210 CAVOK 23/12 Q1013 NOSIG
  • 161830Z AUTO 20007KT 160V230 CAVOK 24/12 Q1012 NOSIG
  • 161800Z AUTO 21008KT 170V230 CAVOK 24/12 Q1012 NOSIG
  • 161730Z AUTO 22011KT CAVOK 25/12 Q1012 NOSIG
  • 161700Z AUTO 21011KT 180V240 CAVOK 25/12 Q1011 NOSIG
  • 161630Z AUTO 21012KT 180V250 CAVOK 27/12 Q1011 NOSIG

TAF TAF LFMO
Valid from the 16 at 15:00 until the 17 at 15:00 UTC


161400Z 1615/1715 VRB04KT CAVOK TX30/1714Z TN13/1705Z



MET'MAP, your aeronautical weather chart ! - Copyright ORBIFLY December 2007 - Disclaimer

ORBIFLY MET'MAP TEAM :

Programming & Development : Alexandra Zaïnal
Original concept : Baudouin d'Aumeries
Technical & hardware support : Manuel Goepfert
Assistance : Marc-Olivier Méhu




SOURCES & CREDITS :

   NOAA